createdAt,value
2019-04-25T00:02:38.797Z,11.00
2019-04-25T00:05:23.979Z,10.90
2019-04-25T00:08:09.479Z,10.90
2019-04-25T00:10:54.927Z,10.90
2019-04-25T00:13:41.916Z,10.90
2019-04-25T00:16:29.209Z,11.00
2019-04-25T00:19:14.367Z,10.90
2019-04-25T00:22:04.778Z,10.90
2019-04-25T00:25:17.856Z,10.80
2019-04-25T00:28:02.771Z,10.70
2019-04-25T00:30:48.342Z,10.60
2019-04-25T00:33:33.582Z,10.50
2019-04-25T00:36:18.955Z,10.40
2019-04-25T00:39:05.493Z,10.30
2019-04-25T00:41:51.978Z,10.20
2019-04-25T00:44:37.557Z,10.20
2019-04-25T00:47:23.235Z,10.00
2019-04-25T00:50:08.078Z,9.90
2019-04-25T00:52:53.729Z,9.90
2019-04-25T00:55:41.322Z,9.80
2019-04-25T00:58:38.511Z,9.70
2019-04-25T01:01:31.755Z,9.60
2019-04-25T01:04:18.062Z,9.50
2019-04-25T01:07:03.247Z,9.40
2019-04-25T01:09:48.275Z,9.30
2019-04-25T01:12:33.674Z,9.20
2019-04-25T01:15:19.355Z,9.20
2019-04-25T01:18:04.934Z,9.10
2019-04-25T01:20:51.162Z,9.00
2019-04-25T01:23:36.825Z,9.00
2019-04-25T01:26:23.968Z,8.80
2019-04-25T01:29:10.634Z,8.80
2019-04-25T01:31:56.366Z,8.60
2019-04-25T01:34:53.703Z,8.60
2019-04-25T01:37:47.494Z,8.50
2019-04-25T01:40:48.117Z,8.40
2019-04-25T01:43:59.673Z,8.30
2019-04-25T01:46:45.262Z,8.20
2019-04-25T01:49:30.634Z,8.10
2019-04-25T01:52:15.728Z,8.10
2019-04-25T01:55:01.143Z,8.10
2019-04-25T01:57:46.746Z,8.20
2019-04-25T02:00:39.753Z,8.10
2019-04-25T02:03:27.159Z,8.20
2019-04-25T02:06:13.655Z,8.10
2019-04-25T02:08:59.405Z,8.10
2019-04-25T02:11:54.740Z,8.00
2019-04-25T02:14:41.386Z,8.00
2019-04-25T02:17:26.303Z,7.90
2019-04-25T02:20:11.622Z,8.00
2019-04-25T02:22:57.848Z,8.00
2019-04-25T02:25:44.256Z,8.00
2019-04-25T02:28:30.191Z,7.90
2019-04-25T02:31:18.129Z,7.80
2019-04-25T02:34:03.607Z,7.70
2019-04-25T02:36:49.307Z,7.60
2019-04-25T02:39:36.734Z,7.60
2019-04-25T02:42:24.391Z,7.50
2019-04-25T02:45:37.619Z,7.50
2019-04-25T02:48:44.018Z,7.50
2019-04-25T02:51:46.331Z,7.30
2019-04-25T02:54:31.394Z,7.20
2019-04-25T02:57:16.662Z,7.10
2019-04-25T03:00:03.599Z,7.10
2019-04-25T03:02:49.215Z,7.00
2019-04-25T03:05:35.419Z,6.90
2019-04-25T03:08:21.063Z,6.90
2019-04-25T03:11:07.530Z,6.80
2019-04-25T03:13:54.665Z,6.80
2019-04-25T03:16:39.472Z,6.80
2019-04-25T03:19:34.117Z,6.80
2019-04-25T03:22:26.386Z,6.90
2019-04-25T03:25:13.514Z,6.90
2019-04-25T03:27:57.378Z,7.00
2019-04-25T03:30:44.890Z,7.10
2019-04-25T03:33:29.722Z,7.10
2019-04-25T03:36:16.952Z,7.10
2019-04-25T03:39:05.244Z,7.10
2019-04-25T03:41:50.405Z,7.00
2019-04-25T03:44:35.910Z,7.00
2019-04-25T03:47:21.606Z,6.90
2019-04-25T03:50:07.975Z,6.90
2019-04-25T03:52:54.059Z,6.80
2019-04-25T03:55:39.746Z,6.80
2019-04-25T03:58:24.978Z,6.80
2019-04-25T04:01:11.000Z,6.80
2019-04-25T04:03:55.910Z,6.70
2019-04-25T04:06:40.818Z,6.70
2019-04-25T04:09:25.888Z,6.70
2019-04-25T04:12:12.253Z,6.70
2019-04-25T04:14:57.957Z,6.70
2019-04-25T04:17:50.387Z,6.70
2019-04-25T04:20:51.218Z,6.70
2019-04-25T04:23:43.442Z,6.70
2019-04-25T04:26:28.715Z,6.60
2019-04-25T04:29:15.158Z,6.60
2019-04-25T04:32:00.430Z,6.60
2019-04-25T04:34:45.828Z,6.70
2019-04-25T04:37:30.814Z,6.80
2019-04-25T04:40:17.108Z,6.90
2019-04-25T04:43:04.426Z,7.00
2019-04-25T04:45:50.207Z,7.10
2019-04-25T04:48:35.438Z,7.10
2019-04-25T04:51:20.421Z,7.10
2019-04-25T04:54:06.123Z,7.20
2019-04-25T04:56:51.800Z,7.30
2019-04-25T04:59:37.038Z,7.50
2019-04-25T05:02:30.591Z,7.60
2019-04-25T05:05:23.542Z,7.80
2019-04-25T05:08:17.306Z,7.90
2019-04-25T05:11:03.970Z,8.10
2019-04-25T05:13:49.502Z,8.20
2019-04-25T05:16:34.373Z,8.30
2019-04-25T05:19:19.935Z,8.40
2019-04-25T05:22:05.203Z,8.50
2019-04-25T05:24:50.674Z,8.70
2019-04-25T05:27:50.831Z,8.80
2019-04-25T05:30:30.014Z,8.90
2019-04-25T05:33:18.515Z,9.00
2019-04-25T05:36:03.738Z,9.10
2019-04-25T05:38:49.726Z,9.30
2019-04-25T05:41:41.094Z,9.50
2019-04-25T05:44:27.349Z,9.70
2019-04-25T05:47:15.077Z,10.00
2019-04-25T05:50:00.718Z,10.40
2019-04-25T05:52:46.186Z,10.80
2019-04-25T05:55:31.427Z,11.10
2019-04-25T05:58:16.923Z,11.40
2019-04-25T06:01:03.382Z,11.80
2019-04-25T06:03:48.357Z,12.30
2019-04-25T06:06:36.669Z,12.70
2019-04-25T06:09:40.545Z,13.10
2019-04-25T06:12:44.419Z,13.40
2019-04-25T06:15:30.086Z,13.70
2019-04-25T06:18:28.340Z,13.70
2019-04-25T06:21:13.753Z,13.70
2019-04-25T06:24:23.662Z,13.80
2019-04-25T06:27:28.604Z,13.90
2019-04-25T06:30:22.607Z,14.30
2019-04-25T06:33:09.658Z,14.60
2019-04-25T06:35:56.762Z,15.00
2019-04-25T06:38:41.899Z,15.30
2019-04-25T06:41:28.189Z,15.60
2019-04-25T06:44:29.734Z,15.80
2019-04-25T06:47:37.937Z,16.50
2019-04-25T06:50:24.247Z,16.80
2019-04-25T06:53:09.831Z,17.40
2019-04-25T06:55:55.303Z,17.90
2019-04-25T06:58:40.530Z,18.10
2019-04-25T07:01:27.435Z,18.30
2019-04-25T07:04:14.062Z,18.60
2019-04-25T07:07:09.814Z,19.00
2019-04-25T07:09:46.663Z,19.30
2019-04-25T07:12:34.168Z,19.30
2019-04-25T07:15:18.647Z,18.90
2019-04-25T07:18:03.932Z,18.60
2019-04-25T07:20:49.435Z,18.50
2019-04-25T07:23:34.722Z,18.60
2019-04-25T07:26:39.750Z,18.80
2019-04-25T07:29:34.580Z,18.80
2019-04-25T07:32:42.043Z,19.40
2019-04-25T07:35:27.254Z,20.50
2019-04-25T07:38:13.942Z,21.50
2019-04-25T07:40:59.301Z,22.30
2019-04-25T07:43:44.334Z,23.10
2019-04-25T07:46:29.805Z,23.70
2019-04-25T07:49:15.455Z,24.50
2019-04-25T07:52:01.153Z,24.50
2019-04-25T07:54:46.730Z,24.30
2019-04-25T07:57:33.546Z,24.90
2019-04-25T08:00:19.935Z,25.40
2019-04-25T08:03:05.773Z,26.20
2019-04-25T08:05:50.831Z,26.50
2019-04-25T08:08:36.100Z,26.90
2019-04-25T08:11:21.659Z,26.90
2019-04-25T08:14:17.866Z,26.00
2019-04-25T08:17:03.827Z,25.90
2019-04-25T08:19:57.214Z,25.80
2019-04-25T08:22:52.954Z,25.90
2019-04-25T08:25:30.816Z,26.20
2019-04-25T08:28:15.913Z,26.20
2019-04-25T08:31:01.027Z,26.20
2019-04-25T08:33:46.721Z,27.00
2019-04-25T08:36:33.816Z,26.90
2019-04-25T08:39:19.294Z,27.00
2019-04-25T08:42:04.547Z,27.30
2019-04-25T08:44:50.025Z,26.90
2019-04-25T08:47:36.173Z,26.80
2019-04-25T08:50:50.631Z,26.80
2019-04-25T08:53:44.944Z,27.90
2019-04-25T08:56:34.242Z,28.20
2019-04-25T08:59:42.563Z,28.70
2019-04-25T09:02:48.206Z,27.50
2019-04-25T09:05:37.777Z,27.50
2019-04-25T09:08:24.582Z,28.30
2019-04-25T09:11:09.433Z,27.90
2019-04-25T09:13:54.915Z,28.90
2019-04-25T09:16:40.055Z,29.60
2019-04-25T09:19:25.390Z,30.70
2019-04-25T09:22:10.927Z,30.60
2019-04-25T09:24:56.267Z,30.80
2019-04-25T09:27:41.973Z,31.00
2019-04-25T09:30:28.208Z,30.30
2019-04-25T09:33:13.642Z,29.70
2019-04-25T09:35:58.410Z,30.90
2019-04-25T09:38:46.975Z,31.60
2019-04-25T09:41:31.388Z,31.40
2019-04-25T09:44:19.391Z,30.80
2019-04-25T09:47:04.523Z,31.20
2019-04-25T09:49:50.134Z,31.40
2019-04-25T09:52:36.099Z,31.60
2019-04-25T09:55:30.731Z,31.90
2019-04-25T09:58:29.306Z,32.00
2019-04-25T10:01:14.896Z,32.70
2019-04-25T10:04:00.130Z,32.50
2019-04-25T10:06:46.024Z,32.00
2019-04-25T10:09:31.470Z,33.20
2019-04-25T10:12:16.873Z,33.30
2019-04-25T10:15:21.809Z,32.00
2019-04-25T10:18:06.942Z,31.60
2019-04-25T10:20:52.024Z,30.90
2019-04-25T10:23:38.273Z,30.80
2019-04-25T10:26:25.060Z,30.90
2019-04-25T10:29:11.000Z,30.90
2019-04-25T10:31:56.671Z,31.80
2019-04-25T10:34:44.849Z,32.90
2019-04-25T10:37:35.353Z,33.20
2019-04-25T10:40:23.385Z,33.40
2019-04-25T10:43:09.323Z,31.30
2019-04-25T10:45:55.129Z,30.00
2019-04-25T10:48:40.267Z,30.80
2019-04-25T10:51:25.347Z,31.50
2019-04-25T10:54:10.723Z,31.00
2019-04-25T10:56:56.173Z,30.80
2019-04-25T10:59:54.558Z,31.00
2019-04-25T11:02:28.526Z,31.50
2019-04-25T11:05:15.030Z,33.70
2019-04-25T11:08:00.426Z,33.50
2019-04-25T11:10:47.497Z,32.90
2019-04-25T11:13:35.389Z,32.30
2019-04-25T11:16:21.143Z,31.30
2019-04-25T11:19:06.411Z,30.80
2019-04-25T11:21:51.773Z,30.90
2019-04-25T11:24:37.650Z,31.10
2019-04-25T11:27:23.946Z,31.70
2019-04-25T11:30:11.533Z,32.40
2019-04-25T11:32:58.121Z,31.70
2019-04-25T11:35:46.467Z,31.80
2019-04-25T11:38:38.495Z,32.00
2019-04-25T11:41:24.368Z,32.50
2019-04-25T11:44:09.617Z,31.70
2019-04-25T11:46:54.874Z,31.90
2019-04-25T11:49:40.435Z,33.00
2019-04-25T11:52:28.412Z,33.00
2019-04-25T11:55:14.320Z,32.30
2019-04-25T11:58:00.041Z,32.30
2019-04-25T12:00:46.002Z,32.10
2019-04-25T12:03:31.690Z,31.20
2019-04-25T12:06:17.217Z,30.60
2019-04-25T12:09:04.020Z,31.30
2019-04-25T12:11:49.978Z,32.00
2019-04-25T12:14:35.101Z,31.80
2019-04-25T12:17:20.310Z,32.20
2019-04-25T12:20:06.071Z,32.20
2019-04-25T12:23:03.375Z,31.70
2019-04-25T12:25:38.243Z,30.90
2019-04-25T12:28:23.596Z,29.80
2019-04-25T12:31:08.727Z,29.90
2019-04-25T12:33:55.214Z,30.30
2019-04-25T12:36:41.318Z,30.30
2019-04-25T12:39:26.667Z,30.20
2019-04-25T12:42:11.862Z,30.50
2019-04-25T12:45:15.474Z,30.50
2019-04-25T12:48:00.982Z,30.30
2019-04-25T12:50:47.737Z,30.10
2019-04-25T12:53:33.426Z,30.40
2019-04-25T12:56:20.441Z,30.10
2019-04-25T12:59:05.681Z,29.00
2019-04-25T13:01:50.790Z,29.30
2019-04-25T13:04:36.122Z,29.50
2019-04-25T13:07:21.227Z,29.80
2019-04-25T13:10:07.363Z,30.10
2019-04-25T13:12:55.259Z,29.90
2019-04-25T13:15:39.851Z,30.30
2019-04-25T13:18:25.175Z,30.80
2019-04-25T13:21:10.647Z,29.60
2019-04-25T13:23:56.707Z,29.40
2019-04-25T13:26:48.824Z,30.10
2019-04-25T13:29:59.666Z,29.80
2019-04-25T13:33:00.087Z,30.60
2019-04-25T13:35:52.207Z,31.60
2019-04-25T13:38:37.314Z,31.90
2019-04-25T13:41:22.457Z,32.40
2019-04-25T13:44:07.654Z,32.00
2019-04-25T13:46:53.308Z,30.40
2019-04-25T13:49:39.002Z,30.10
2019-04-25T13:52:25.060Z,30.10
2019-04-25T13:55:10.468Z,29.80
2019-04-25T13:57:55.835Z,29.80
2019-04-25T14:00:40.837Z,29.60
2019-04-25T14:03:27.237Z,28.60
2019-04-25T14:06:13.644Z,28.30
2019-04-25T14:08:59.370Z,27.90
2019-04-25T14:11:44.841Z,27.30
2019-04-25T14:14:30.232Z,27.40
2019-04-25T14:17:26.122Z,27.40
2019-04-25T14:20:19.381Z,27.40
2019-04-25T14:23:06.095Z,27.50
2019-04-25T14:25:51.275Z,27.30
2019-04-25T14:28:36.198Z,27.10
2019-04-25T14:31:33.809Z,26.90
2019-04-25T14:34:08.682Z,26.90
2019-04-25T14:36:54.597Z,27.00
2019-04-25T14:39:40.251Z,27.60
2019-04-25T14:42:25.111Z,28.10
2019-04-25T14:45:10.990Z,28.60
2019-04-25T14:47:56.049Z,28.50
2019-04-25T14:50:41.635Z,28.30
2019-04-25T14:53:26.894Z,28.00
2019-04-25T14:56:28.827Z,28.10
2019-04-25T14:59:14.033Z,28.30
2019-04-25T15:01:59.382Z,28.40
2019-04-25T15:04:44.574Z,28.20
2019-04-25T15:07:29.777Z,27.60
2019-04-25T15:10:14.894Z,27.10
2019-04-25T15:13:00.770Z,26.90
2019-04-25T15:15:45.818Z,26.60
2019-04-25T15:18:31.210Z,26.20
2019-04-25T15:21:18.639Z,25.70
2019-04-25T15:24:03.407Z,25.70
2019-04-25T15:26:49.429Z,25.50
2019-04-25T15:29:34.718Z,25.20
2019-04-25T15:32:22.575Z,25.10
2019-04-25T15:35:10.605Z,24.80
2019-04-25T15:38:01.706Z,24.60
2019-04-25T15:40:57.019Z,24.40
2019-04-25T15:44:02.126Z,24.60
2019-04-25T15:46:48.814Z,25.00
2019-04-25T15:49:34.429Z,25.60
2019-04-25T15:52:20.387Z,26.30
2019-04-25T15:55:07.344Z,26.20
2019-04-25T15:57:52.446Z,26.40
2019-04-25T16:00:38.371Z,26.50
2019-04-25T16:03:23.596Z,26.30
2019-04-25T16:06:08.986Z,26.20
2019-04-25T16:08:54.802Z,25.70
2019-04-25T16:11:39.389Z,25.60
2019-04-25T16:14:26.356Z,25.50
2019-04-25T16:17:11.901Z,25.50
2019-04-25T16:19:57.582Z,25.70
2019-04-25T16:22:42.801Z,25.60
2019-04-25T16:25:27.910Z,25.30
2019-04-25T16:28:13.051Z,25.30
2019-04-25T16:30:58.414Z,25.00
2019-04-25T16:33:43.710Z,24.60
2019-04-25T16:36:29.537Z,24.20
2019-04-25T16:39:20.294Z,24.00
2019-04-25T16:42:05.858Z,23.90
2019-04-25T16:44:50.719Z,23.70
2019-04-25T16:47:37.319Z,23.50
2019-04-25T16:50:23.754Z,23.20
2019-04-25T16:53:08.947Z,23.00
2019-04-25T16:55:54.029Z,22.80
2019-04-25T16:58:39.339Z,22.60
2019-04-25T17:01:25.109Z,22.50
2019-04-25T17:04:10.467Z,22.20
2019-04-25T17:06:55.540Z,22.10
2019-04-25T17:09:40.813Z,21.90
2019-04-25T17:12:26.906Z,21.80
2019-04-25T17:15:20.809Z,21.60
2019-04-25T17:18:10.438Z,21.50
2019-04-25T17:21:04.325Z,21.40
2019-04-25T17:23:50.017Z,21.30
2019-04-25T17:26:35.118Z,21.20
2019-04-25T17:29:20.065Z,21.20
2019-04-25T17:32:15.105Z,21.00
2019-04-25T17:35:10.784Z,20.90
2019-04-25T17:38:00.119Z,20.80
2019-04-25T17:40:45.340Z,20.70
2019-04-25T17:43:31.992Z,20.60
2019-04-25T17:46:19.942Z,20.50
2019-04-25T17:49:05.443Z,20.40
2019-04-25T17:51:50.814Z,20.20
2019-04-25T17:54:36.665Z,20.10
2019-04-25T17:57:22.279Z,20.00
2019-04-25T18:00:10.382Z,19.80
2019-04-25T18:02:59.044Z,19.60
2019-04-25T18:05:44.081Z,19.50
2019-04-25T18:08:29.464Z,19.40
2019-04-25T18:11:14.654Z,19.30
2019-04-25T18:14:00.114Z,19.30
2019-04-25T18:16:46.566Z,19.20
2019-04-25T18:19:38.865Z,19.10
2019-04-25T18:22:59.022Z,19.10
2019-04-25T18:26:03.958Z,19.00
2019-04-25T18:28:55.711Z,18.90
2019-04-25T18:31:41.619Z,18.80
2019-04-25T18:34:32.522Z,18.80
2019-04-25T18:37:37.183Z,18.80
2019-04-25T18:40:31.714Z,18.80
2019-04-25T18:43:25.189Z,18.80
2019-04-25T18:46:15.889Z,18.70
2019-04-25T18:49:00.843Z,18.70
2019-04-25T18:51:56.469Z,18.60
2019-04-25T18:54:43.147Z,18.70
2019-04-25T18:57:37.414Z,18.60
2019-04-25T19:00:34.967Z,18.60
2019-04-25T19:03:50.190Z,18.50
2019-04-25T19:06:35.490Z,18.50
2019-04-25T19:09:21.374Z,18.40
2019-04-25T19:12:06.811Z,18.40
2019-04-25T19:14:52.219Z,18.40
2019-04-25T19:17:37.590Z,18.30
2019-04-25T19:20:23.166Z,18.30
2019-04-25T19:23:08.422Z,18.30
2019-04-25T19:25:53.214Z,18.30
2019-04-25T19:28:38.495Z,18.30
2019-04-25T19:31:25.123Z,18.30
2019-04-25T19:34:10.333Z,18.20
2019-04-25T19:36:56.005Z,18.10
2019-04-25T19:39:45.238Z,18.20
2019-04-25T19:42:35.142Z,18.10
2019-04-25T19:45:20.203Z,18.10
2019-04-25T19:48:05.539Z,18.00
2019-04-25T19:50:51.136Z,18.00
2019-04-25T19:53:36.422Z,18.00
2019-04-25T19:56:21.903Z,17.90
2019-04-25T19:59:07.035Z,17.80
2019-04-25T20:01:54.290Z,17.80
2019-04-25T20:04:53.521Z,17.70
2019-04-25T20:07:46.570Z,17.60
2019-04-25T20:10:38.439Z,17.50
2019-04-25T20:13:24.650Z,17.40
2019-04-25T20:16:10.712Z,17.40
2019-04-25T20:18:56.489Z,17.30
2019-04-25T20:21:41.759Z,17.20
2019-04-25T20:24:27.537Z,17.20
2019-04-25T20:27:13.114Z,17.10
2019-04-25T20:29:58.906Z,17.20
2019-04-25T20:32:44.730Z,17.10
2019-04-25T20:35:31.463Z,17.00
2019-04-25T20:38:17.063Z,17.00
2019-04-25T20:41:01.944Z,16.90
2019-04-25T20:43:47.551Z,16.80
2019-04-25T20:46:33.139Z,16.80
2019-04-25T20:49:18.343Z,16.80
2019-04-25T20:52:03.508Z,16.80
2019-04-25T20:54:48.896Z,16.80
2019-04-25T20:57:34.662Z,16.80
2019-04-25T21:00:36.021Z,16.70
2019-04-25T21:03:21.523Z,16.70
2019-04-25T21:06:13.276Z,16.70
2019-04-25T21:08:58.314Z,16.70
2019-04-25T21:11:43.447Z,16.60
2019-04-25T21:14:36.362Z,16.60
2019-04-25T21:17:28.074Z,16.60
2019-04-25T21:20:13.083Z,16.60
2019-04-25T21:22:58.334Z,16.50
2019-04-25T21:25:43.991Z,16.50
2019-04-25T21:28:29.335Z,16.50
2019-04-25T21:31:14.881Z,16.50
2019-04-25T21:33:59.837Z,16.50
2019-04-25T21:36:45.430Z,16.40
2019-04-25T21:39:47.614Z,16.30
2019-04-25T21:42:46.142Z,16.20
2019-04-25T21:45:31.770Z,16.20
2019-04-25T21:48:17.327Z,16.10
2019-04-25T21:51:22.127Z,16.00
2019-04-25T21:54:06.925Z,16.00
2019-04-25T21:56:53.312Z,16.00
2019-04-25T21:59:40.018Z,16.00
2019-04-25T22:02:25.866Z,15.90
2019-04-25T22:05:11.407Z,15.90
2019-04-25T22:07:57.180Z,15.90
2019-04-25T22:10:43.186Z,15.80
2019-04-25T22:13:28.510Z,15.70
2019-04-25T22:16:13.949Z,15.60
2019-04-25T22:19:00.135Z,15.50
2019-04-25T22:21:45.187Z,15.40
2019-04-25T22:24:30.814Z,15.40
2019-04-25T22:27:21.854Z,15.40
2019-04-25T22:30:09.010Z,15.30
2019-04-25T22:33:03.730Z,15.40
2019-04-25T22:35:52.875Z,15.40
2019-04-25T22:38:38.218Z,15.40
2019-04-25T22:41:23.514Z,15.40
2019-04-25T22:44:10.916Z,15.40
2019-04-25T22:46:57.734Z,15.50
2019-04-25T22:49:42.636Z,15.40
2019-04-25T22:52:28.269Z,15.40
2019-04-25T22:55:13.819Z,15.40
2019-04-25T22:57:59.199Z,15.40
2019-04-25T23:00:44.455Z,15.40
2019-04-25T23:03:36.818Z,15.30
2019-04-25T23:06:22.395Z,15.30
2019-04-25T23:09:08.163Z,15.40
2019-04-25T23:11:53.228Z,15.40
2019-04-25T23:14:38.442Z,15.40
2019-04-25T23:17:23.933Z,15.50
2019-04-25T23:20:09.656Z,15.50
2019-04-25T23:22:55.234Z,15.50
2019-04-25T23:26:01.562Z,15.50
2019-04-25T23:28:47.470Z,15.50
2019-04-25T23:31:33.454Z,15.40
2019-04-25T23:34:18.705Z,15.30
2019-04-25T23:37:03.547Z,15.30
2019-04-25T23:39:50.288Z,15.20
2019-04-25T23:42:36.175Z,15.20
2019-04-25T23:45:21.513Z,15.10
2019-04-25T23:48:07.324Z,15.20
2019-04-25T23:50:53.683Z,15.20
2019-04-25T23:53:39.803Z,15.20
2019-04-25T23:56:25.183Z,15.20
2019-04-25T23:59:11.570Z,15.20
